sensor_id;sensor_type;location;lat;lon;timestamp;pressure;altitude;pressure_sealevel;temperature;humidity
79534;BME280;68982;52.160;6.736;2023-04-06T00:00:02;101633.53;;;3.47;54.29
79534;BME280;68982;52.160;6.736;2023-04-06T00:02:29;101634.38;;;3.48;53.64
79534;BME280;68982;52.160;6.736;2023-04-06T00:04:55;101638.50;;;3.52;53.64
79534;BME280;68982;52.160;6.736;2023-04-06T00:07:20;101622.50;;;3.41;53.91
79534;BME280;68982;52.160;6.736;2023-04-06T00:09:46;101627.09;;;3.50;53.14
79534;BME280;68982;52.160;6.736;2023-04-06T00:12:11;101623.47;;;3.40;53.77
79534;BME280;68982;52.160;6.736;2023-04-06T00:14:36;101623.72;;;3.48;53.63
79534;BME280;68982;52.160;6.736;2023-04-06T00:17:02;101621.28;;;3.45;53.46
79534;BME280;68982;52.160;6.736;2023-04-06T00:19:27;101626.63;;;3.45;54.14
79534;BME280;68982;52.160;6.736;2023-04-06T00:21:52;101622.72;;;3.38;53.81
79534;BME280;68982;52.160;6.736;2023-04-06T00:24:18;101611.34;;;3.24;55.96
79534;BME280;68982;52.160;6.736;2023-04-06T00:26:43;101607.63;;;3.27;55.36
79534;BME280;68982;52.160;6.736;2023-04-06T00:29:09;101604.94;;;3.27;54.05
79534;BME280;68982;52.160;6.736;2023-04-06T00:31:34;101601.56;;;3.14;55.80
79534;BME280;68982;52.160;6.736;2023-04-06T00:33:59;101605.66;;;3.18;55.34
79534;BME280;68982;52.160;6.736;2023-04-06T00:36:25;101597.53;;;3.19;55.01
79534;BME280;68982;52.160;6.736;2023-04-06T00:38:50;101594.41;;;3.25;54.46
79534;BME280;68982;52.160;6.736;2023-04-06T00:41:17;101591.84;;;3.24;53.41
79534;BME280;68982;52.160;6.736;2023-04-06T00:43:42;101590.91;;;3.14;54.42
79534;BME280;68982;52.160;6.736;2023-04-06T00:46:08;101587.16;;;3.05;55.36
79534;BME280;68982;52.160;6.736;2023-04-06T00:48:33;101584.34;;;3.06;54.66
79534;BME280;68982;52.160;6.736;2023-04-06T00:51:00;101586.16;;;3.06;55.17
79534;BME280;68982;52.160;6.736;2023-04-06T00:53:26;101591.03;;;3.01;55.84
79534;BME280;68982;52.160;6.736;2023-04-06T00:55:51;101582.28;;;2.99;56.61
79534;BME280;68982;52.160;6.736;2023-04-06T00:58:17;101577.34;;;2.94;55.86
79534;BME280;68982;52.160;6.736;2023-04-06T01:00:42;101577.69;;;2.89;55.59
79534;BME280;68982;52.160;6.736;2023-04-06T01:03:08;101571.28;;;2.92;55.55
79534;BME280;68982;52.160;6.736;2023-04-06T01:05:34;101546.47;;;2.80;55.98
79534;BME280;68982;52.160;6.736;2023-04-06T01:08:04;101567.63;;;2.93;55.54
79534;BME280;68982;52.160;6.736;2023-04-06T01:10:30;101562.81;;;2.87;55.82
79534;BME280;68982;52.160;6.736;2023-04-06T01:12:56;101543.53;;;2.72;55.81
79534;BME280;68982;52.160;6.736;2023-04-06T01:15:21;101553.81;;;2.65;56.89
79534;BME280;68982;52.160;6.736;2023-04-06T01:17:47;101547.41;;;2.68;56.60
79534;BME280;68982;52.160;6.736;2023-04-06T01:20:13;101547.75;;;2.63;56.95
79534;BME280;68982;52.160;6.736;2023-04-06T01:22:38;101557.22;;;2.67;57.06
79534;BME280;68982;52.160;6.736;2023-04-06T01:25:04;101551.16;;;2.65;57.02
79534;BME280;68982;52.160;6.736;2023-04-06T01:27:30;101545.47;;;2.59;56.97
79534;BME280;68982;52.160;6.736;2023-04-06T01:29:55;101549.81;;;2.60;56.89
79534;BME280;68982;52.160;6.736;2023-04-06T01:32:24;101552.09;;;2.64;56.67
79534;BME280;68982;52.160;6.736;2023-04-06T01:34:49;101539.41;;;2.57;56.12
79534;BME280;68982;52.160;6.736;2023-04-06T01:37:15;101544.25;;;2.63;56.35
79534;BME280;68982;52.160;6.736;2023-04-06T01:39:42;101526.72;;;2.49;57.61
79534;BME280;68982;52.160;6.736;2023-04-06T01:42:08;101538.78;;;2.53;56.20
79534;BME280;68982;52.160;6.736;2023-04-06T01:44:33;101538.31;;;2.59;56.35
79534;BME280;68982;52.160;6.736;2023-04-06T01:46:59;101537.34;;;2.49;57.29
79534;BME280;68982;52.160;6.736;2023-04-06T01:49:25;101538.19;;;2.38;57.81
79534;BME280;68982;52.160;6.736;2023-04-06T01:51:50;101530.03;;;2.28;57.85
79534;BME280;68982;52.160;6.736;2023-04-06T01:54:16;101536.81;;;2.33;56.74
79534;BME280;68982;52.160;6.736;2023-04-06T01:56:42;101527.63;;;2.25;58.21
79534;BME280;68982;52.160;6.736;2023-04-06T01:59:07;101544.06;;;2.31;57.78
79534;BME280;68982;52.160;6.736;2023-04-06T02:01:32;101529.53;;;2.23;58.29
79534;BME280;68982;52.160;6.736;2023-04-06T02:03:58;101536.44;;;2.26;58.13
79534;BME280;68982;52.160;6.736;2023-04-06T02:06:23;101539.94;;;2.26;57.93
79534;BME280;68982;52.160;6.736;2023-04-06T02:08:48;101534.50;;;2.28;57.36
79534;BME280;68982;52.160;6.736;2023-04-06T02:11:14;101527.72;;;2.24;57.94
79534;BME280;68982;52.160;6.736;2023-04-06T02:13:39;101531.72;;;2.18;58.41
79534;BME280;68982;52.160;6.736;2023-04-06T02:16:05;101526.97;;;2.11;58.20
79534;BME280;68982;52.160;6.736;2023-04-06T02:18:31;101515.84;;;2.05;58.74
79534;BME280;68982;52.160;6.736;2023-04-06T02:20:56;101523.81;;;2.05;58.01
79534;BME280;68982;52.160;6.736;2023-04-06T02:23:22;101518.97;;;2.11;58.84
79534;BME280;68982;52.160;6.736;2023-04-06T02:25:47;101525.28;;;2.10;58.46
79534;BME280;68982;52.160;6.736;2023-04-06T02:28:12;101507.00;;;2.05;58.07
79534;BME280;68982;52.160;6.736;2023-04-06T02:30:38;101510.09;;;1.88;59.15
79534;BME280;68982;52.160;6.736;2023-04-06T02:33:03;101520.38;;;1.92;58.14
79534;BME280;68982;52.160;6.736;2023-04-06T02:35:30;101507.53;;;1.86;59.08
79534;BME280;68982;52.160;6.736;2023-04-06T02:37:55;101515.03;;;1.81;58.70
79534;BME280;68982;52.160;6.736;2023-04-06T02:40:20;101517.56;;;1.82;58.82
79534;BME280;68982;52.160;6.736;2023-04-06T02:42:46;101519.38;;;1.82;59.00
79534;BME280;68982;52.160;6.736;2023-04-06T02:45:11;101506.03;;;1.71;59.53
79534;BME280;68982;52.160;6.736;2023-04-06T02:47:37;101505.69;;;1.75;59.63
79534;BME280;68982;52.160;6.736;2023-04-06T02:50:02;101507.50;;;1.75;59.62
79534;BME280;68982;52.160;6.736;2023-04-06T02:52:28;101496.19;;;1.60;60.68
79534;BME280;68982;52.160;6.736;2023-04-06T02:54:53;101511.69;;;1.66;60.16
79534;BME280;68982;52.160;6.736;2023-04-06T02:57:18;101504.78;;;1.63;61.36
79534;BME280;68982;52.160;6.736;2023-04-06T02:59:44;101504.50;;;1.55;60.66
79534;BME280;68982;52.160;6.736;2023-04-06T03:02:09;101508.88;;;1.56;60.90
79534;BME280;68982;52.160;6.736;2023-04-06T03:04:35;101504.66;;;1.54;60.18
79534;BME280;68982;52.160;6.736;2023-04-06T03:07:00;101505.47;;;1.54;60.35
79534;BME280;68982;52.160;6.736;2023-04-06T03:09:25;101496.88;;;1.51;60.64
79534;BME280;68982;52.160;6.736;2023-04-06T03:11:51;101502.94;;;1.53;60.72
79534;BME280;68982;52.160;6.736;2023-04-06T03:14:16;101504.97;;;1.49;60.65
79534;BME280;68982;52.160;6.736;2023-04-06T03:16:46;101491.13;;;1.57;59.64
79534;BME280;68982;52.160;6.736;2023-04-06T03:19:11;101495.25;;;1.61;60.13
79534;BME280;68982;52.160;6.736;2023-04-06T03:21:37;101492.41;;;1.51;59.99
79534;BME280;68982;52.160;6.736;2023-04-06T03:24:02;101498.78;;;1.49;60.43
79534;BME280;68982;52.160;6.736;2023-04-06T03:26:28;101493.22;;;1.40;60.57
79534;BME280;68982;52.160;6.736;2023-04-06T03:28:53;101496.63;;;1.42;59.87
79534;BME280;68982;52.160;6.736;2023-04-06T03:31:19;101498.19;;;1.45;60.41
79534;BME280;68982;52.160;6.736;2023-04-06T03:33:44;101496.03;;;1.50;59.26
79534;BME280;68982;52.160;6.736;2023-04-06T03:36:10;101489.03;;;1.49;60.66
79534;BME280;68982;52.160;6.736;2023-04-06T03:38:35;101488.50;;;1.44;60.66
79534;BME280;68982;52.160;6.736;2023-04-06T03:41:00;101492.81;;;1.34;60.63
79534;BME280;68982;52.160;6.736;2023-04-06T03:43:25;101488.69;;;1.30;60.42
79534;BME280;68982;52.160;6.736;2023-04-06T03:45:51;101491.09;;;1.33;60.51
79534;BME280;68982;52.160;6.736;2023-04-06T03:48:16;101477.47;;;1.37;60.54
79534;BME280;68982;52.160;6.736;2023-04-06T03:50:41;101487.94;;;1.28;61.43
79534;BME280;68982;52.160;6.736;2023-04-06T03:53:07;101488.06;;;1.26;60.90
79534;BME280;68982;52.160;6.736;2023-04-06T03:55:33;101485.53;;;1.24;60.50
79534;BME280;68982;52.160;6.736;2023-04-06T03:57:59;101487.44;;;1.22;60.31
79534;BME280;68982;52.160;6.736;2023-04-06T04:00:24;101482.97;;;1.23;60.31
79534;BME280;68982;52.160;6.736;2023-04-06T04:02:50;101474.66;;;1.28;61.18
79534;BME280;68982;52.160;6.736;2023-04-06T04:05:15;101479.13;;;1.27;60.53
79534;BME280;68982;52.160;6.736;2023-04-06T04:07:41;101470.72;;;1.09;59.65
79534;BME280;68982;52.160;6.736;2023-04-06T04:10:06;101481.66;;;1.05;61.35
79534;BME280;68982;52.160;6.736;2023-04-06T04:12:32;101474.31;;;1.08;61.22
79534;BME280;68982;52.160;6.736;2023-04-06T04:14:57;101477.19;;;1.05;60.18
79534;BME280;68982;52.160;6.736;2023-04-06T04:17:24;101477.47;;;1.13;60.54
79534;BME280;68982;52.160;6.736;2023-04-06T04:19:50;101480.13;;;1.13;60.98
79534;BME280;68982;52.160;6.736;2023-04-06T04:22:15;101481.31;;;1.09;61.13
79534;BME280;68982;52.160;6.736;2023-04-06T04:24:40;101477.69;;;1.10;61.03
79534;BME280;68982;52.160;6.736;2023-04-06T04:27:06;101487.59;;;1.08;61.02
79534;BME280;68982;52.160;6.736;2023-04-06T04:29:31;101477.47;;;1.13;60.82
79534;BME280;68982;52.160;6.736;2023-04-06T04:31:57;101479.84;;;1.05;61.17
79534;BME280;68982;52.160;6.736;2023-04-06T04:34:22;101478.38;;;1.01;61.07
79534;BME280;68982;52.160;6.736;2023-04-06T04:36:51;101484.63;;;1.00;61.65
79534;BME280;68982;52.160;6.736;2023-04-06T04:39:17;101473.50;;;0.95;61.34
79534;BME280;68982;52.160;6.736;2023-04-06T04:41:42;101479.22;;;0.89;61.92
79534;BME280;68982;52.160;6.736;2023-04-06T04:44:07;101463.97;;;0.79;61.96
79534;BME280;68982;52.160;6.736;2023-04-06T04:46:33;101477.97;;;0.81;62.35
79534;BME280;68982;52.160;6.736;2023-04-06T04:48:58;101473.81;;;0.90;62.37
79534;BME280;68982;52.160;6.736;2023-04-06T04:51:23;101472.97;;;0.90;62.00
79534;BME280;68982;52.160;6.736;2023-04-06T04:53:50;101475.84;;;0.87;61.59
79534;BME280;68982;52.160;6.736;2023-04-06T04:56:15;101473.81;;;0.90;61.28
79534;BME280;68982;52.160;6.736;2023-04-06T04:58:40;101483.91;;;0.98;60.75
79534;BME280;68982;52.160;6.736;2023-04-06T05:01:06;101472.00;;;0.91;61.23
79534;BME280;68982;52.160;6.736;2023-04-06T05:03:32;101477.78;;;0.85;61.88
79534;BME280;68982;52.160;6.736;2023-04-06T05:05:57;101475.63;;;0.90;61.21
79534;BME280;68982;52.160;6.736;2023-04-06T05:08:23;101476.31;;;0.80;61.46
79534;BME280;68982;52.160;6.736;2023-04-06T05:10:48;101469.06;;;0.82;61.30
79534;BME280;68982;52.160;6.736;2023-04-06T05:13:14;101465.44;;;0.83;60.98
79534;BME280;68982;52.160;6.736;2023-04-06T05:15:40;101477.16;;;0.81;61.22
79534;BME280;68982;52.160;6.736;2023-04-06T05:18:06;101472.38;;;0.73;61.95
79534;BME280;68982;52.160;6.736;2023-04-06T05:20:32;101468.03;;;0.72;61.78
79534;BME280;68982;52.160;6.736;2023-04-06T05:22:58;101459.31;;;0.70;61.43
79534;BME280;68982;52.160;6.736;2023-04-06T05:25:23;101467.78;;;0.75;61.40
79534;BME280;68982;52.160;6.736;2023-04-06T05:27:49;101468.22;;;0.82;61.66
79534;BME280;68982;52.160;6.736;2023-04-06T05:30:15;101461.22;;;0.81;61.74
79534;BME280;68982;52.160;6.736;2023-04-06T05:32:40;101466.19;;;0.86;62.37
79534;BME280;68982;52.160;6.736;2023-04-06T05:35:07;101467.88;;;0.87;62.21
79534;BME280;68982;52.160;6.736;2023-04-06T05:37:33;101470.22;;;0.91;61.36
79534;BME280;68982;52.160;6.736;2023-04-06T05:39:58;101465.53;;;0.95;61.91
79534;BME280;68982;52.160;6.736;2023-04-06T05:42:23;101465.19;;;0.99;61.67
79534;BME280;68982;52.160;6.736;2023-04-06T05:44:49;101458.06;;;1.00;61.30
79534;BME280;68982;52.160;6.736;2023-04-06T05:47:14;101468.16;;;1.08;61.30
79534;BME280;68982;52.160;6.736;2023-04-06T05:49:41;101461.75;;;1.10;61.53
79534;BME280;68982;52.160;6.736;2023-04-06T05:52:08;101465.31;;;1.22;60.79
79534;BME280;68982;52.160;6.736;2023-04-06T05:54:33;101470.88;;;1.19;60.92
79534;BME280;68982;52.160;6.736;2023-04-06T05:56:59;101468.94;;;1.21;61.63
79534;BME280;68982;52.160;6.736;2023-04-06T05:59:24;101472.00;;;1.28;60.82
79534;BME280;68982;52.160;6.736;2023-04-06T06:01:50;101465.97;;;1.50;60.07
79534;BME280;68982;52.160;6.736;2023-04-06T06:04:15;101467.97;;;1.46;60.32
79534;BME280;68982;52.160;6.736;2023-04-06T06:06:40;101464.81;;;1.65;59.54
79534;BME280;68982;52.160;6.736;2023-04-06T06:09:05;101465.25;;;1.94;58.10
79534;BME280;68982;52.160;6.736;2023-04-06T06:11:31;101459.25;;;2.15;57.70
79534;BME280;68982;52.160;6.736;2023-04-06T06:13:58;101453.94;;;2.37;57.24
79534;BME280;68982;52.160;6.736;2023-04-06T06:16:23;101458.91;;;2.53;56.68
79534;BME280;68982;52.160;6.736;2023-04-06T06:18:48;101452.38;;;2.68;56.30
79534;BME280;68982;52.160;6.736;2023-04-06T06:21:14;101460.97;;;2.83;55.84
79534;BME280;68982;52.160;6.736;2023-04-06T06:23:42;101447.16;;;3.01;55.42
79534;BME280;68982;52.160;6.736;2023-04-06T06:26:07;101454.84;;;3.15;55.19
79534;BME280;68982;52.160;6.736;2023-04-06T06:28:33;101451.69;;;3.21;55.45
79534;BME280;68982;52.160;6.736;2023-04-06T06:30:58;101450.22;;;3.28;54.70
79534;BME280;68982;52.160;6.736;2023-04-06T06:33:23;101448.50;;;3.39;54.87
79534;BME280;68982;52.160;6.736;2023-04-06T06:35:49;101453.50;;;3.53;55.07
79534;BME280;68982;52.160;6.736;2023-04-06T06:38:15;101450.69;;;3.34;55.28
79534;BME280;68982;52.160;6.736;2023-04-06T06:40:41;101456.78;;;3.13;55.74
79534;BME280;68982;52.160;6.736;2023-04-06T06:43:06;101452.94;;;3.06;56.99
79534;BME280;68982;52.160;6.736;2023-04-06T06:45:32;101459.59;;;3.11;56.82
79534;BME280;68982;52.160;6.736;2023-04-06T06:47:57;101458.75;;;3.00;57.08
79534;BME280;68982;52.160;6.736;2023-04-06T06:50:23;101450.66;;;3.01;57.70
79534;BME280;68982;52.160;6.736;2023-04-06T06:52:48;101460.47;;;2.89;57.47
79534;BME280;68982;52.160;6.736;2023-04-06T06:55:14;101450.53;;;3.03;58.24
79534;BME280;68982;52.160;6.736;2023-04-06T06:57:40;101457.13;;;3.20;57.30
79534;BME280;68982;52.160;6.736;2023-04-06T07:00:08;101450.59;;;3.24;57.54
79534;BME280;68982;52.160;6.736;2023-04-06T07:02:36;101443.78;;;3.31;57.73
79534;BME280;68982;52.160;6.736;2023-04-06T07:05:02;101443.13;;;3.50;57.27
79534;BME280;68982;52.160;6.736;2023-04-06T07:07:28;101442.41;;;3.69;56.78
79534;BME280;68982;52.160;6.736;2023-04-06T07:10:00;101444.03;;;4.23;55.48
79534;BME280;68982;52.160;6.736;2023-04-06T07:12:25;101442.28;;;4.74;53.49
79534;BME280;68982;52.160;6.736;2023-04-06T07:14:51;101448.84;;;5.01;52.88
79534;BME280;68982;52.160;6.736;2023-04-06T07:17:16;101451.69;;;5.28;52.42
79534;BME280;68982;52.160;6.736;2023-04-06T07:19:42;101438.63;;;5.54;51.38
79534;BME280;68982;52.160;6.736;2023-04-06T07:22:07;101453.41;;;5.58;51.05
79534;BME280;68982;52.160;6.736;2023-04-06T07:24:32;101438.06;;;5.70;50.62
79534;BME280;68982;52.160;6.736;2023-04-06T07:26:58;101442.00;;;5.66;50.64
79534;BME280;68982;52.160;6.736;2023-04-06T07:29:25;101436.66;;;5.76;50.85
79534;BME280;68982;52.160;6.736;2023-04-06T07:31:51;101447.06;;;5.79;50.92
79534;BME280;68982;52.160;6.736;2023-04-06T07:34:17;101439.47;;;5.74;51.20
79534;BME280;68982;52.160;6.736;2023-04-06T07:36:42;101445.78;;;5.83;50.87
79534;BME280;68982;52.160;6.736;2023-04-06T07:39:07;101445.91;;;5.91;50.90
79534;BME280;68982;52.160;6.736;2023-04-06T07:41:33;101436.91;;;6.02;50.51
79534;BME280;68982;52.160;6.736;2023-04-06T07:43:58;101441.06;;;6.34;50.06
79534;BME280;68982;52.160;6.736;2023-04-06T07:46:24;101444.59;;;6.72;48.61
79534;BME280;68982;52.160;6.736;2023-04-06T07:48:49;101441.78;;;6.91;48.58
79534;BME280;68982;52.160;6.736;2023-04-06T07:51:16;101433.03;;;7.17;47.40
79534;BME280;68982;52.160;6.736;2023-04-06T07:53:43;101439.47;;;7.24;46.65
79534;BME280;68982;52.160;6.736;2023-04-06T07:56:09;101429.44;;;7.26;47.52
79534;BME280;68982;52.160;6.736;2023-04-06T07:58:35;101435.19;;;7.49;46.45
79534;BME280;68982;52.160;6.736;2023-04-06T08:01:01;101435.47;;;7.64;46.26
79534;BME280;68982;52.160;6.736;2023-04-06T08:03:26;101441.31;;;7.77;45.84
79534;BME280;68982;52.160;6.736;2023-04-06T08:05:52;101426.38;;;8.01;44.88
79534;BME280;68982;52.160;6.736;2023-04-06T08:08:18;101431.84;;;8.17;45.55
79534;BME280;68982;52.160;6.736;2023-04-06T08:10:44;101426.81;;;8.40;44.59
79534;BME280;68982;52.160;6.736;2023-04-06T08:13:10;101429.16;;;8.17;45.11
79534;BME280;68982;52.160;6.736;2023-04-06T08:15:35;101432.25;;;8.48;44.14
79534;BME280;68982;52.160;6.736;2023-04-06T08:18:00;101421.84;;;8.27;44.13
79534;BME280;68982;52.160;6.736;2023-04-06T08:20:26;101423.22;;;8.32;44.79
79534;BME280;68982;52.160;6.736;2023-04-06T08:22:51;101415.75;;;8.43;44.17
79534;BME280;68982;52.160;6.736;2023-04-06T08:25:17;101417.38;;;8.36;44.42
79534;BME280;68982;52.160;6.736;2023-04-06T08:27:42;101411.81;;;8.38;44.44
79534;BME280;68982;52.160;6.736;2023-04-06T08:30:08;101415.13;;;8.49;44.06
79534;BME280;68982;52.160;6.736;2023-04-06T08:32:33;101410.78;;;8.30;44.46
79534;BME280;68982;52.160;6.736;2023-04-06T08:34:59;101414.06;;;8.42;44.24
79534;BME280;68982;52.160;6.736;2023-04-06T08:37:24;101413.28;;;8.50;45.06
79534;BME280;68982;52.160;6.736;2023-04-06T08:39:50;101415.00;;;8.59;44.34
79534;BME280;68982;52.160;6.736;2023-04-06T08:42:25;101412.09;;;8.53;44.92
79534;BME280;68982;52.160;6.736;2023-04-06T08:44:51;101412.31;;;8.59;45.11
79534;BME280;68982;52.160;6.736;2023-04-06T08:47:18;101401.75;;;8.66;44.91
79534;BME280;68982;52.160;6.736;2023-04-06T08:49:44;101415.91;;;8.84;43.83
79534;BME280;68982;52.160;6.736;2023-04-06T08:52:10;101409.09;;;8.98;43.70
79534;BME280;68982;52.160;6.736;2023-04-06T08:54:37;101404.38;;;9.08;43.03
79534;BME280;68982;52.160;6.736;2023-04-06T08:57:04;101414.50;;;9.15;42.50
79534;BME280;68982;52.160;6.736;2023-04-06T08:59:31;101405.06;;;9.10;42.80
79534;BME280;68982;52.160;6.736;2023-04-06T09:01:56;101400.72;;;9.09;43.41
79534;BME280;68982;52.160;6.736;2023-04-06T09:04:22;101408.63;;;9.36;42.17
79534;BME280;68982;52.160;6.736;2023-04-06T09:06:48;101408.13;;;9.40;41.55
79534;BME280;68982;52.160;6.736;2023-04-06T09:09:15;101408.50;;;9.70;41.29
79534;BME280;68982;52.160;6.736;2023-04-06T09:11:51;101409.84;;;9.66;40.15
79534;BME280;68982;52.160;6.736;2023-04-06T09:14:17;101393.50;;;9.92;40.71
79534;BME280;68982;52.160;6.736;2023-04-06T09:16:57;101388.44;;;9.89;40.13
79534;BME280;68982;52.160;6.736;2023-04-06T09:19:23;101400.03;;;9.98;40.39
79534;BME280;68982;52.160;6.736;2023-04-06T09:21:48;101391.81;;;9.99;39.53
79534;BME280;68982;52.160;6.736;2023-04-06T09:24:13;101388.38;;;10.13;39.47
79534;BME280;68982;52.160;6.736;2023-04-06T09:26:46;101397.00;;;10.09;38.94
79534;BME280;68982;52.160;6.736;2023-04-06T09:29:22;101393.41;;;10.25;39.50
79534;BME280;68982;52.160;6.736;2023-04-06T09:31:48;101393.25;;;10.43;38.67
79534;BME280;68982;52.160;6.736;2023-04-06T09:34:21;101391.16;;;10.61;37.56
79534;BME280;68982;52.160;6.736;2023-04-06T09:36:48;101393.66;;;10.63;37.54
79534;BME280;68982;52.160;6.736;2023-04-06T09:39:13;101388.06;;;10.72;37.23
79534;BME280;68982;52.160;6.736;2023-04-06T09:41:39;101392.69;;;10.87;36.66
79534;BME280;68982;52.160;6.736;2023-04-06T09:44:07;101390.72;;;11.12;36.95
79534;BME280;68982;52.160;6.736;2023-04-06T09:46:37;101383.41;;;10.89;36.53
79534;BME280;68982;52.160;6.736;2023-04-06T09:49:05;101377.50;;;11.17;36.10
79534;BME280;68982;52.160;6.736;2023-04-06T09:51:38;101377.72;;;11.38;34.95
79534;BME280;68982;52.160;6.736;2023-04-06T09:54:05;101379.66;;;11.68;34.58
79534;BME280;68982;52.160;6.736;2023-04-06T09:56:38;101377.59;;;11.93;34.03
79534;BME280;68982;52.160;6.736;2023-04-06T09:59:09;101374.16;;;12.14;33.05
79534;BME280;68982;52.160;6.736;2023-04-06T10:01:36;101379.66;;;12.06;32.30
79534;BME280;68982;52.160;6.736;2023-04-06T10:04:13;101378.34;;;11.64;32.68
79534;BME280;68982;52.160;6.736;2023-04-06T10:06:44;101367.16;;;11.90;32.04
79534;BME280;68982;52.160;6.736;2023-04-06T10:09:13;101366.13;;;12.65;30.58
79534;BME280;68982;52.160;6.736;2023-04-06T10:11:39;101361.63;;;12.57;31.46
79534;BME280;68982;52.160;6.736;2023-04-06T10:14:06;101359.84;;;12.64;30.78
79534;BME280;68982;52.160;6.736;2023-04-06T10:16:32;101351.78;;;12.86;30.68
79534;BME280;68982;52.160;6.736;2023-04-06T10:19:14;101357.09;;;13.16;30.08
79534;BME280;68982;52.160;6.736;2023-04-06T10:21:43;101363.53;;;13.30;29.22
79534;BME280;68982;52.160;6.736;2023-04-06T10:24:10;101354.59;;;13.36;29.71
79534;BME280;68982;52.160;6.736;2023-04-06T10:26:37;101351.97;;;13.21;28.90
79534;BME280;68982;52.160;6.736;2023-04-06T10:29:03;101353.84;;;13.42;28.86
79534;BME280;68982;52.160;6.736;2023-04-06T10:31:29;101356.78;;;13.04;29.99
79534;BME280;68982;52.160;6.736;2023-04-06T10:36:28;101351.97;;;12.84;31.28
79534;BME280;68982;52.160;6.736;2023-04-06T10:38:59;101351.13;;;13.42;30.17
79534;BME280;68982;52.160;6.736;2023-04-06T10:41:36;101344.41;;;13.87;29.28
79534;BME280;68982;52.160;6.736;2023-04-06T10:44:06;101352.78;;;14.21;28.70
79534;BME280;68982;52.160;6.736;2023-04-06T10:46:33;101348.66;;;14.38;28.60
79534;BME280;68982;52.160;6.736;2023-04-06T10:49:10;101330.66;;;14.24;28.59
79534;BME280;68982;52.160;6.736;2023-04-06T10:51:39;101338.66;;;14.39;26.91
79534;BME280;68982;52.160;6.736;2023-04-06T10:54:09;101344.31;;;14.09;28.81
79534;BME280;68982;52.160;6.736;2023-04-06T10:56:37;101338.44;;;13.99;29.10
79534;BME280;68982;52.160;6.736;2023-04-06T10:59:05;101334.25;;;13.68;28.18
79534;BME280;68982;52.160;6.736;2023-04-06T11:01:30;101335.78;;;14.05;28.49
79534;BME280;68982;52.160;6.736;2023-04-06T11:03:57;101331.25;;;13.84;29.78
79534;BME280;68982;52.160;6.736;2023-04-06T11:06:26;101328.56;;;13.35;29.88
79534;BME280;68982;52.160;6.736;2023-04-06T11:08:52;101328.84;;;13.25;30.96
79534;BME280;68982;52.160;6.736;2023-04-06T11:11:20;101336.91;;;13.18;31.21
79534;BME280;68982;52.160;6.736;2023-04-06T11:16:35;101340.31;;;13.27;31.29
79534;BME280;68982;52.160;6.736;2023-04-06T11:19:03;101332.69;;;13.31;30.98
79534;BME280;68982;52.160;6.736;2023-04-06T11:21:39;101333.75;;;13.15;30.94
79534;BME280;68982;52.160;6.736;2023-04-06T11:24:14;101334.34;;;13.32;31.74
79534;BME280;68982;52.160;6.736;2023-04-06T11:29:07;101336.41;;;13.51;31.72
79534;BME280;68982;52.160;6.736;2023-04-06T11:31:40;101327.75;;;13.62;31.80
79534;BME280;68982;52.160;6.736;2023-04-06T11:34:10;101329.81;;;13.60;31.67
79534;BME280;68982;52.160;6.736;2023-04-06T11:36:35;101322.00;;;13.72;31.08
79534;BME280;68982;52.160;6.736;2023-04-06T11:39:03;101320.16;;;13.79;31.41
79534;BME280;68982;52.160;6.736;2023-04-06T11:41:28;101321.56;;;14.03;31.55
79534;BME280;68982;52.160;6.736;2023-04-06T11:43:55;101310.56;;;13.77;31.25
79534;BME280;68982;52.160;6.736;2023-04-06T11:46:20;101306.47;;;13.59;31.65
79534;BME280;68982;52.160;6.736;2023-04-06T11:48:46;101326.63;;;13.50;31.72
79534;BME280;68982;52.160;6.736;2023-04-06T11:51:21;101315.28;;;13.68;31.33
79534;BME280;68982;52.160;6.736;2023-04-06T11:53:47;101322.16;;;13.42;31.87
79534;BME280;68982;52.160;6.736;2023-04-06T11:56:26;101315.22;;;13.33;31.94
79534;BME280;68982;52.160;6.736;2023-04-06T11:58:55;101311.66;;;13.54;31.45
79534;BME280;68982;52.160;6.736;2023-04-06T12:01:22;101309.69;;;13.70;31.95
79534;BME280;68982;52.160;6.736;2023-04-06T12:03:48;101311.78;;;13.46;31.31
79534;BME280;68982;52.160;6.736;2023-04-06T12:06:14;101309.22;;;13.38;31.67
79534;BME280;68982;52.160;6.736;2023-04-06T12:08:40;101305.19;;;13.55;31.41
79534;BME280;68982;52.160;6.736;2023-04-06T12:11:05;101301.50;;;13.63;31.08
79534;BME280;68982;52.160;6.736;2023-04-06T12:13:31;101309.78;;;13.55;31.44
79534;BME280;68982;52.160;6.736;2023-04-06T12:15:56;101310.72;;;13.47;31.17
79534;BME280;68982;52.160;6.736;2023-04-06T12:18:22;101305.41;;;13.60;31.85
79534;BME280;68982;52.160;6.736;2023-04-06T12:20:47;101312.66;;;13.53;32.18
79534;BME280;68982;52.160;6.736;2023-04-06T12:23:12;101318.03;;;13.46;32.98
79534;BME280;68982;52.160;6.736;2023-04-06T12:25:42;101323.41;;;13.40;32.88
79534;BME280;68982;52.160;6.736;2023-04-06T12:28:07;101306.91;;;13.35;32.85
79534;BME280;68982;52.160;6.736;2023-04-06T12:30:35;101304.13;;;13.50;33.62
79534;BME280;68982;52.160;6.736;2023-04-06T12:33:00;101310.03;;;13.38;33.36
79534;BME280;68982;52.160;6.736;2023-04-06T12:35:26;101324.47;;;13.02;33.84
79534;BME280;68982;52.160;6.736;2023-04-06T12:37:52;101318.09;;;13.10;35.15
79534;BME280;68982;52.160;6.736;2023-04-06T12:40:17;101309.91;;;12.82;35.98
79534;BME280;68982;52.160;6.736;2023-04-06T12:42:43;101314.94;;;13.06;37.00
79534;BME280;68982;52.160;6.736;2023-04-06T12:45:09;101326.91;;;12.97;37.09
79534;BME280;68982;52.160;6.736;2023-04-06T12:47:34;101328.56;;;12.77;37.88
79534;BME280;68982;52.160;6.736;2023-04-06T12:50:01;101323.53;;;12.74;37.91
79534;BME280;68982;52.160;6.736;2023-04-06T12:52:27;101315.09;;;12.62;37.59
79534;BME280;68982;52.160;6.736;2023-04-06T12:54:55;101324.25;;;12.61;38.11
79534;BME280;68982;52.160;6.736;2023-04-06T12:57:21;101312.69;;;12.37;38.74
79534;BME280;68982;52.160;6.736;2023-04-06T12:59:47;101320.25;;;12.27;38.51